Meteo Giornale » Osservazioni meteo Italia » Monte Terminillo

ore: 06:55 - Osservazioni Meteo Monte Terminillo
Lat. 42° 28' N Lon. 12° 59' E Alt. 1874 metri s.l.m.

sereno Europe/Rome

13 °C

Sereno

Temp. 24 Ore

11 °C

17 °C

Nord

3.7 Km/h

Dew point 1 °C

Umidità 43 %

Visibilità  0 Km

Il sole sorge alle ore 06:02

Il sole tramonta alle ore 20:26

Data e Ora Cielo e Fenomeni T °C DP °C Um. % Pres. hPa Vis. km Vento km/h
Oggi h: 06:55 sereno Sereno 13 1 43 1024 0 N 3.7
Oggi h: 05:55 sereno Sereno 13 1 43 1024 0 O 7.4
Oggi h: 04:55 sereno Sereno 12 1 46 1024 0 N 3.7
Oggi h: 03:55 sereno Sereno 12 1 46 1024 0 N 3.7
Oggi h: 02:55 sereno Sereno 12 3 54 1025 0 N 5.5
Oggi h: 01:55 sereno Sereno 13 2 47 1025 32 N 3.7
Oggi h: 00:55 sereno Sereno 13 4 54 1025 32 N 3.7
Ieri h: 23:55 sereno Sereno 13 5 58 1026 32 N 5.5
Ieri h: 22:55 sereno Sereno 13 7 66 1025 32 O 7.4
Ieri h: 20:55 sereno Sereno 14 7 62 1024 32 O 7.4
Ieri h: 19:55 sereno Sereno 15 6 54 1024 32 NO 7.4
Ieri h: 18:55 sereno Sereno 16 6 51 1024 32 NO 9.3
Ieri h: 17:55 sereno Sereno 17 6 48 1024 32 O 13
Ieri h: 16:55 sereno Sereno 17 7 51 1024 31 O/NO 11.1
Ieri h: 15:55 sereno Sereno 17 8 55 1024 31 O/NO 13
Ieri h: 14:55 sereno Sereno 17 6 48 1025 31 O/NO 20.3
Ieri h: 13:55 sereno Sereno 17 6 48 1025 31 O 14.8
Ieri h: 12:55 sereno Sereno 16 5 47 1025 31 O/NO 16.7
Ieri h: 11:55 sereno Sereno 15 3 44 1025 31 NO 9.3
Ieri h: 10:55 sereno Sereno 14 -0 38 1025 31 NO 7.4
Ieri h: 09:55 sereno Sereno 13 -4 30 1025 31 O/NO 7.4
Ieri h: 08:55 sereno Sereno 12 -2 37 1025 31 O/SO 7.4
Ieri h: 07:55 sereno Sereno 11 -1 43 1024 31 O 11.1